Time;durP1;ratioP1;P1;durP2;ratioP2;P2;SDS_P1;SDS_P2;PMS_P1;PMS_P2;Temp;Humidity;BMP_temperature;BMP_pressure;BME280_temperature;BME280_humidity;BME280_pressure;Samples;Min_cycle;Max_cycle;Signal;HPM_P1;HPM_P2
2023/11/06 00:01:45;;;;;;;2.35;1.50;;;;;;;8.98;72.51;97166.13;4996090;28;102723;-64
2023/11/06 00:04:17;;;;;;;1.02;1.02;;;;;;;8.99;72.73;97170.38;4982716;28;103966;-64
2023/11/06 00:06:45;;;;;;;1.67;1.10;;;;;;;8.98;72.48;97169.59;4995498;28;102771;-65
2023/11/06 00:09:13;;;;;;;2.55;1.30;;;;;;;8.99;72.90;97167.75;4995230;28;103358;-64
2023/11/06 00:11:41;;;;;;;1.95;1.20;;;;;;;8.94;73.19;97173.63;5000443;28;103266;-65
2023/11/06 00:14:09;;;;;;;4.80;1.63;;;;;;;8.95;73.30;97172.63;4997666;28;102597;-65
2023/11/06 00:16:43;;;;;;;3.47;1.60;;;;;;;8.89;73.81;97173.41;4997946;28;103053;-67
2023/11/06 00:19:11;;;;;;;1.75;1.15;;;;;;;8.92;73.39;97170.34;4998585;28;103322;-65
2023/11/06 00:21:40;;;;;;;1.27;1.10;;;;;;;8.90;73.47;97172.38;4996476;28;103189;-65
2023/11/06 00:24:13;;;;;;;2.92;1.38;;;;;;;8.82;73.58;97173.38;4998263;28;102567;-65
2023/11/06 00:26:41;;;;;;;2.85;1.65;;;;;;;8.76;74.27;97172.31;4994231;28;102793;-65
2023/11/06 00:29:09;;;;;;;3.38;1.60;;;;;;;8.83;73.77;97180.28;4996767;28;103280;-65
2023/11/06 00:31:41;;;;;;;3.83;1.60;;;;;;;8.83;73.52;97184.72;4997848;28;103608;-65
2023/11/06 00:34:10;;;;;;;1.60;1.20;;;;;;;8.83;73.29;97184.72;4978784;28;102716;-65
2023/11/06 00:36:38;;;;;;;2.70;1.45;;;;;;;8.87;73.63;97188.59;4997707;28;103411;-65
2023/11/06 00:39:08;;;;;;;3.10;1.35;;;;;;;8.84;73.57;97194.28;4992402;28;102925;-65
2023/11/06 00:41:36;;;;;;;2.03;1.30;;;;;;;8.79;73.76;97200.97;4994578;28;103169;-65
2023/11/06 00:44:05;;;;;;;3.85;1.77;;;;;;;8.78;73.66;97186.13;4979772;28;103308;-65
2023/11/06 00:46:33;;;;;;;3.47;1.70;;;;;;;8.76;74.01;97185.53;5003353;28;102744;-64
2023/11/06 00:49:03;;;;;;;3.38;1.45;;;;;;;8.78;73.77;97188.75;4979009;28;103468;-65
2023/11/06 00:51:31;;;;;;;3.38;1.80;;;;;;;8.82;74.18;97198.94;4979947;28;104507;-64
2023/11/06 00:53:59;;;;;;;3.17;1.80;;;;;;;8.79;74.11;97187.75;4982401;28;102932;-65
2023/11/06 00:56:30;;;;;;;3.53;1.73;;;;;;;8.79;74.36;97187.75;4999845;28;104342;-64
2023/11/06 00:59:00;;;;;;;7.47;1.90;;;;;;;8.77;74.62;97192.41;4995850;28;103229;-65
2023/11/06 01:01:28;;;;;;;3.30;1.70;;;;;;;8.73;74.55;97196.44;4994455;28;103226;-65
2023/11/06 01:03:57;;;;;;;2.78;1.77;;;;;;;8.76;74.30;97204.00;4982095;28;102940;-65
2023/11/06 01:06:29;;;;;;;2.35;1.45;;;;;;;8.83;74.57;97208.47;4984487;28;104366;-65
2023/11/06 01:08:57;;;;;;;2.47;1.42;;;;;;;8.82;74.18;97206.84;4978382;28;104439;-64
2023/11/06 01:11:26;;;;;;;5.43;1.88;;;;;;;8.81;74.30;97206.03;4978170;28;102954;-65
2023/11/06 01:14:03;;;;;;;9.15;2.20;;;;;;;8.81;74.10;97205.25;4996936;28;104434;-65
2023/11/06 01:16:47;;;;;;;7.43;2.15;;;;;;;8.82;74.71;97201.56;5001049;28;102729;-65
2023/11/06 01:19:16;;;;;;;4.95;2.42;;;;;;;8.77;74.57;97208.25;4979203;28;103211;-65
2023/11/06 01:21:45;;;;;;;4.00;1.45;;;;;;;8.78;74.15;97201.97;4992296;28;103278;-65
2023/11/06 01:24:15;;;;;;;4.68;1.90;;;;;;;8.82;74.37;97196.28;4995545;28;103780;-65
2023/11/06 01:26:43;;;;;;;2.58;1.45;;;;;;;8.81;74.13;97200.75;4979065;28;102849;-64
2023/11/06 01:29:12;;;;;;;3.95;1.70;;;;;;;8.74;74.01;97210.47;4996083;28;103922;-64
2023/11/06 01:31:40;;;;;;;3.50;1.92;;;;;;;8.69;74.67;97203.13;4995756;28;103172;-64
2023/11/06 01:34:08;;;;;;;6.70;2.10;;;;;;;8.72;74.03;97202.72;4997358;28;102841;-64
2023/11/06 01:36:42;;;;;;;3.65;1.67;;;;;;;8.65;74.61;97212.44;4996295;28;105054;-64
2023/11/06 01:39:11;;;;;;;;;;;;;;;8.58;74.84;97222.13;4993202;28;103613;-64
2023/11/06 01:41:39;;;;;;;5.07;1.80;;;;;;;8.55;74.82;97218.03;4984671;28;103248;-64
2023/11/06 01:44:07;;;;;;;6.22;1.90;;;;;;;8.60;74.39;97220.91;4995600;28;102767;-62
2023/11/06 01:46:37;;;;;;;6.68;2.10;;;;;;;8.55;75.12;97214.59;4979161;28;102946;-64
2023/11/06 01:49:07;;;;;;;6.03;2.08;;;;;;;8.58;74.55;97209.75;4977500;28;104336;-63
2023/11/06 01:51:38;;;;;;;7.22;1.85;;;;;;;8.55;74.67;97204.03;4973284;28;104220;-63
2023/11/06 01:54:11;;;;;;;3.70;1.88;;;;;;;8.52;74.83;97212.34;4996848;28;102791;-64
2023/11/06 01:56:40;;;;;;;3.30;1.80;;;;;;;8.51;74.53;97221.25;4983725;28;102720;-64
2023/11/06 01:59:09;;;;;;;5.95;1.88;;;;;;;8.58;74.05;97219.47;4982667;28;103212;-64
2023/11/06 02:01:41;;;;;;;3.30;1.58;;;;;;;8.53;74.26;97221.88;4983122;28;103278;-64
2023/11/06 02:04:23;;;;;;;3.05;1.50;;;;;;;8.52;74.29;97234.25;5003205;28;103684;-65
2023/11/06 02:06:51;;;;;;;4.80;1.83;;;;;;;8.53;74.76;97229.78;4983011;28;104041;-65
2023/11/06 02:09:21;;;;;;;3.42;1.83;;;;;;;8.53;74.58;97237.72;4983830;28;104786;-64
2023/11/06 02:11:49;;;;;;;3.08;1.40;;;;;;;8.53;74.45;97248.25;4982895;28;104016;-64
2023/11/06 02:14:22;;;;;;;4.05;1.75;;;;;;;8.58;74.29;97253.78;4981396;28;102722;-63
2023/11/06 02:16:51;;;;;;;4.72;1.55;;;;;;;8.51;74.67;97252.94;4984839;28;104079;-64
2023/11/06 02:19:20;;;;;;;5.43;2.03;;;;;;;8.55;74.22;97254.19;4986025;28;103147;-64
2023/11/06 02:21:54;;;;;;;5.82;2.10;;;;;;;8.48;74.64;97248.03;4980588;28;103218;-63
2023/11/06 02:24:27;;;;;;;5.32;1.92;;;;;;;8.49;74.23;97254.94;4978938;28;102725;-64
2023/11/06 02:26:57;;;;;;;2.97;1.63;;;;;;;8.49;74.43;97250.50;5001153;28;102816;-64
2023/11/06 02:29:32;;;;;;;4.38;1.80;;;;;;;8.52;74.02;97254.56;5000394;28;103312;-64
2023/11/06 02:32:00;;;;;;;3.63;1.60;;;;;;;8.47;74.91;97268.31;4983450;28;103217;-64
2023/11/06 02:34:29;;;;;;;4.85;1.58;;;;;;;8.42;74.90;97257.47;5000322;28;102680;-64
2023/11/06 02:36:57;;;;;;;3.72;1.70;;;;;;;8.46;74.42;97261.41;5000060;28;102967;-64
2023/11/06 02:39:26;;;;;;;3.65;1.80;;;;;;;8.43;74.46;97277.59;4980585;28;102958;-64
2023/11/06 02:41:54;;;;;;;3.63;1.80;;;;;;;8.41;74.53;97274.31;4999033;28;103199;-65
2023/11/06 02:44:22;;;;;;;4.38;1.70;;;;;;;8.45;74.29;97279.06;4981092;28;103152;-64
2023/11/06 02:46:56;;;;;;;3.10;1.65;;;;;;;8.42;74.50;97282.06;5000429;28;102706;-63
2023/11/06 02:49:26;;;;;;;2.75;1.48;;;;;;;8.41;74.35;97280.44;5000598;28;103206;-64
2023/11/06 02:51:54;;;;;;;3.17;1.50;;;;;;;8.40;74.73;97281.44;5000159;28;102978;-64
2023/11/06 02:54:23;;;;;;;4.80;1.70;;;;;;;8.39;74.39;97287.69;4980784;28;102721;-64
2023/11/06 02:56:53;;;;;;;5.78;1.60;;;;;;;8.29;75.48;97288.03;5001123;28;104379;-64
2023/11/06 02:59:22;;;;;;;3.55;1.60;;;;;;;8.30;74.62;97288.84;4980952;28;102944;-64
2023/11/06 03:01:54;;;;;;;3.13;1.50;;;;;;;8.39;75.01;97290.34;4995384;28;102820;-64
2023/11/06 03:04:27;;;;;;;2.42;1.40;;;;;;;8.28;75.14;97296.13;4985129;28;102713;-64
2023/11/06 03:06:57;;;;;;;3.47;1.40;;;;;;;8.31;74.93;97308.94;4997442;28;102875;-64
2023/11/06 03:09:34;;;;;;;3.95;1.55;;;;;;;8.28;74.78;97304.06;4998699;28;103260;-64
2023/11/06 03:12:08;;;;;;;3.13;1.50;;;;;;;8.29;75.27;97316.22;4980693;28;103204;-64
2023/11/06 03:14:36;;;;;;;4.40;1.35;;;;;;;8.30;74.89;97318.69;4981495;28;102784;-64
2023/11/06 03:17:04;;;;;;;4.60;1.55;;;;;;;8.34;74.33;97327.03;4983764;28;104043;-64
2023/11/06 03:19:35;;;;;;;3.95;2.22;;;;;;;8.32;74.79;97323.78;4998393;28;103191;-63
2023/11/06 03:22:03;;;;;;;6.05;1.85;;;;;;;8.33;74.55;97329.84;4996653;28;103230;-64
2023/11/06 03:24:31;;;;;;;2.80;1.58;;;;;;;8.32;74.97;97334.31;4999048;28;103124;-63
2023/11/06 03:26:59;;;;;;;3.20;1.67;;;;;;;8.31;74.54;97337.97;4999554;28;104114;-64
2023/11/06 03:29:28;;;;;;;4.88;1.60;;;;;;;8.35;74.23;97348.97;4978861;28;104080;-63
2023/11/06 03:31:56;;;;;;;3.13;1.20;;;;;;;8.35;74.57;97343.69;4978530;28;103214;-63
2023/11/06 03:34:24;;;;;;;4.22;1.73;;;;;;;8.30;74.59;97352.97;4995730;28;102625;-64
2023/11/06 03:36:52;;;;;;;3.38;1.40;;;;;;;8.32;74.90;97351.94;4981134;28;102750;-64
2023/11/06 03:39:22;;;;;;;4.63;1.80;;;;;;;8.33;74.43;97362.31;4977889;28;103385;-64
2023/11/06 03:41:50;;;;;;;2.85;1.50;;;;;;;8.38;74.29;97359.13;4990199;28;104013;-63
2023/11/06 03:44:19;;;;;;;6.20;1.90;;;;;;;8.43;74.70;97362.03;4997766;28;103651;-64
2023/11/06 03:46:49;;;;;;;3.72;1.60;;;;;;;8.42;74.57;97376.22;4980194;28;102678;-63
2023/11/06 03:49:17;;;;;;;3.92;1.95;;;;;;;8.41;74.24;97383.31;4977760;28;103292;-63
2023/11/06 03:51:45;;;;;;;3.92;1.77;;;;;;;8.42;74.42;97382.31;4978634;28;105159;-63
2023/11/06 03:54:14;;;;;;;2.47;1.38;;;;;;;8.45;74.26;97399.59;4975844;28;103046;-64
2023/11/06 03:56:42;;;;;;;6.00;1.70;;;;;;;8.52;74.57;97402.34;4982455;28;104175;-65
2023/11/06 03:59:09;;;;;;;3.25;1.50;;;;;;;8.49;74.71;97392.13;4998095;28;103153;-64
2023/11/06 04:01:38;;;;;;;5.10;1.35;;;;;;;8.49;74.98;97407.97;4997751;28;103047;-64
2023/11/06 04:04:07;;;;;;;4.07;1.40;;;;;;;8.49;74.96;97397.41;4995945;28;102624;-63
2023/11/06 04:06:35;;;;;;;4.68;1.75;;;;;;;8.52;75.45;97402.34;4996158;28;102797;-63
2023/11/06 04:09:04;;;;;;;5.95;2.15;;;;;;;8.52;75.50;97407.63;4997403;28;103253;-63
2023/11/06 04:11:31;;;;;;;3.63;1.60;;;;;;;8.45;75.24;97402.25;4976397;28;104216;-64
2023/11/06 04:13:59;;;;;;;3.75;1.90;;;;;;;8.48;75.13;97414.28;5001639;28;102686;-64
2023/11/06 04:16:31;;;;;;;2.75;1.63;;;;;;;8.50;75.70;97414.91;4997530;28;102734;-63
2023/11/06 04:18:59;;;;;;;2.60;1.50;;;;;;;8.54;75.38;97429.34;4997226;28;103329;-63
2023/11/06 04:21:29;;;;;;;4.05;1.40;;;;;;;8.57;74.88;97421.06;4999590;28;103835;-64
2023/11/06 04:23:59;;;;;;;3.78;1.45;;;;;;;8.58;75.13;97422.69;4998813;28;102863;-63
2023/11/06 04:26:27;;;;;;;4.05;1.83;;;;;;;8.61;74.93;97427.63;4995890;28;103007;-63
2023/11/06 04:28:55;;;;;;;5.50;2.03;;;;;;;8.62;74.78;97434.53;4998384;28;104043;-63
2023/11/06 04:31:23;;;;;;;7.97;1.80;;;;;;;8.68;74.80;97438.22;4995639;28;102966;-63
2023/11/06 04:33:51;;;;;;;3.22;1.73;;;;;;;8.68;74.69;97441.69;4976062;28;102755;-62
2023/11/06 04:36:19;;;;;;;3.63;1.60;;;;;;;8.66;75.33;97429.69;4996845;28;102705;-63
2023/11/06 04:38:52;;;;;;;6.63;2.22;;;;;;;8.66;75.20;97437.59;4979151;28;104255;-63
2023/11/06 04:41:22;;;;;;;4.75;1.45;;;;;;;8.68;75.48;97432.97;4978508;28;103274;-64
2023/11/06 04:43:53;;;;;;;8.60;1.58;;;;;;;8.69;75.79;97424.84;4995790;28;102713;-64
2023/11/06 04:46:21;;;;;;;2.75;1.35;;;;;;;8.67;75.60;97429.47;4995939;28;103881;-64
2023/11/06 04:48:51;;;;;;;3.60;1.60;;;;;;;8.65;75.23;97435.94;4992445;28;103431;-64
2023/11/06 04:51:19;;;;;;;4.72;1.83;;;;;;;8.65;75.67;97431.50;4996657;28;103216;-64
2023/11/06 04:53:47;;;;;;;6.85;2.13;;;;;;;8.64;75.54;97437.78;4995613;28;102706;-64
2023/11/06 04:56:16;;;;;;;5.65;1.65;;;;;;;8.58;75.38;97427.97;5000041;28;102580;-64
2023/11/06 04:58:44;;;;;;;4.72;1.88;;;;;;;8.55;75.33;97439.72;4995439;28;104137;-64
2023/11/06 05:01:12;;;;;;;1.92;1.40;;;;;;;8.58;75.43;97452.56;4993344;28;103404;-65
2023/11/06 05:03:40;;;;;;;4.32;1.42;;;;;;;8.57;75.14;97461.47;4977325;28;102706;-64
2023/11/06 05:06:09;;;;;;;4.85;1.50;;;;;;;8.54;75.03;97464.50;4997568;28;102719;-64
2023/11/06 05:08:37;;;;;;;5.13;1.70;;;;;;;8.52;75.49;97465.69;4996510;28;103213;-64
2023/11/06 05:11:06;;;;;;;3.78;1.67;;;;;;;8.46;75.80;97465.41;4987250;28;103302;-68
2023/11/06 05:13:35;;;;;;;4.07;1.40;;;;;;;8.45;75.45;97471.69;4997403;28;103218;-68
2023/11/06 05:16:04;;;;;;;5.00;1.92;;;;;;;8.46;75.03;97478.59;4976792;28;102749;-67
2023/11/06 05:18:32;;;;;;;4.47;1.70;;;;;;;8.48;74.80;97474.97;4992988;28;104030;-67
2023/11/06 05:21:00;;;;;;;3.17;1.70;;;;;;;8.49;74.87;97487.13;4997117;28;103304;-67
2023/11/06 05:23:30;;;;;;;4.40;1.80;;;;;;;8.46;74.75;97483.03;4976697;28;102737;-67
2023/11/06 05:26:02;;;;;;;4.72;1.85;;;;;;;8.46;74.95;97483.88;4979814;28;103965;-67
2023/11/06 05:28:30;;;;;;;3.88;1.70;;;;;;;8.43;74.30;97488.66;4993960;28;104141;-66
2023/11/06 05:30:59;;;;;;;2.38;1.60;;;;;;;8.40;74.62;97489.84;4994724;28;103260;-68
2023/11/06 05:33:27;;;;;;;3.85;1.63;;;;;;;8.33;74.83;97491.56;4994714;28;102725;-67
2023/11/06 05:35:55;;;;;;;4.75;1.77;;;;;;;8.36;74.79;97498.31;4999472;28;102652;-67
2023/11/06 05:38:24;;;;;;;3.20;1.58;;;;;;;8.33;74.72;97510.03;5001252;28;103255;-66
2023/11/06 05:40:54;;;;;;;2.92;1.50;;;;;;;8.33;74.76;97503.97;5002060;28;103329;-67
2023/11/06 05:43:26;;;;;;;6.00;1.75;;;;;;;8.27;74.87;97506.31;4993758;28;103806;-66
2023/11/06 05:45:54;;;;;;;3.70;1.50;;;;;;;8.30;74.89;97502.50;4997282;28;102853;-66
2023/11/06 05:48:24;;;;;;;4.28;2.17;;;;;;;8.31;74.47;97514.69;4990578;28;103407;-66
2023/11/06 05:50:52;;;;;;;3.22;1.48;;;;;;;8.31;74.48;97517.34;4997784;28;103273;-67
2023/11/06 05:53:20;;;;;;;2.72;1.42;;;;;;;8.30;74.18;97515.69;4997085;28;102642;-67
2023/11/06 05:55:48;;;;;;;7.93;1.95;;;;;;;8.27;74.20;97521.34;4997290;28;105634;-66
2023/11/06 05:58:16;;;;;;;3.42;1.80;;;;;;;8.28;74.16;97517.72;4993838;28;103275;-66
2023/11/06 06:00:45;;;;;;;3.40;1.50;;;;;;;8.24;74.22;97521.69;4995213;28;103187;-65
2023/11/06 06:03:14;;;;;;;3.15;1.60;;;;;;;8.25;74.76;97536.53;4998451;28;102589;-66
2023/11/06 06:05:44;;;;;;;2.55;1.40;;;;;;;8.25;74.60;97525.97;5000022;28;102735;-66
2023/11/06 06:08:13;;;;;;;1.88;1.40;;;;;;;8.24;74.37;97540.16;4998156;28;103235;-66
2023/11/06 06:10:41;;;;;;;3.25;1.70;;;;;;;8.24;73.91;97542.78;4997161;28;104212;-66
2023/11/06 06:13:11;;;;;;;3.63;1.80;;;;;;;8.14;74.49;97541.25;4999845;28;102960;-66
2023/11/06 06:15:39;;;;;;;3.03;1.30;;;;;;;8.05;74.33;97542.34;4998858;28;103801;-64
2023/11/06 06:18:07;;;;;;;3.50;1.70;;;;;;;8.00;73.95;97552.59;5000062;28;103744;-64
2023/11/06 06:20:36;;;;;;;4.63;1.65;;;;;;;7.91;74.47;97543.13;4999224;28;103281;-64
2023/11/06 06:23:05;;;;;;;4.72;1.70;;;;;;;7.75;74.63;97544.09;4999322;28;102570;-61
2023/11/06 06:25:33;;;;;;;6.53;1.63;;;;;;;7.66;75.24;97543.34;5000502;28;102577;-66
2023/11/06 06:28:04;;;;;;;2.35;1.40;;;;;;;7.66;75.32;97548.63;5001907;28;103022;-66
2023/11/06 06:30:32;;;;;;;1.90;1.40;;;;;;;7.64;75.07;97563.81;5002691;28;103288;-66
2023/11/06 06:33:00;;;;;;;3.38;1.40;;;;;;;7.56;75.79;97559.41;4995628;28;102579;-66
2023/11/06 06:35:28;;;;;;;5.20;1.90;;;;;;;7.51;75.09;97555.69;5000263;28;102596;-65
2023/11/06 06:37:56;;;;;;;4.28;1.63;;;;;;;7.46;75.96;97561.47;4980909;28;104365;-66
2023/11/06 06:40:28;;;;;;;2.95;1.67;;;;;;;7.50;76.05;97572.47;4998742;28;103193;-66
2023/11/06 06:42:59;;;;;;;3.65;1.60;;;;;;;7.56;75.41;97574.38;4979040;28;102659;-66
2023/11/06 06:45:27;;;;;;;3.35;1.30;;;;;;;7.67;74.96;97573.97;4999415;28;102688;-65
2023/11/06 06:47:55;;;;;;;5.15;1.88;;;;;;;7.75;74.95;97581.00;4999491;28;104040;-66
2023/11/06 06:50:25;;;;;;;4.10;1.75;;;;;;;7.84;74.69;97584.41;4997175;28;103103;-66
2023/11/06 06:52:53;;;;;;;2.28;1.60;;;;;;;7.84;74.89;97585.22;4998984;28;103829;-66
2023/11/06 06:55:23;;;;;;;3.00;1.55;;;;;;;7.91;74.79;97588.78;4997319;28;102758;-66
2023/11/06 06:57:56;;;;;;;2.35;1.30;;;;;;;8.19;74.30;97601.38;4991294;28;103233;-67
2023/11/06 07:00:24;;;;;;;3.38;1.55;;;;;;;8.40;73.94;97594.59;4994875;28;103184;-64
2023/11/06 07:02:54;;;;;;;2.50;1.50;;;;;;;8.55;72.93;97605.97;4992188;28;102668;-64
2023/11/06 07:05:22;;;;;;;4.97;1.70;;;;;;;8.62;72.49;97604.25;4995368;28;103127;-64
2023/11/06 07:07:51;;;;;;;4.03;2.28;;;;;;;8.76;72.15;97602.63;4997560;28;102952;-64
2023/11/06 07:10:18;;;;;;;4.88;2.28;;;;;;;8.88;71.36;97608.25;4996198;28;103325;-64
2023/11/06 07:12:46;;;;;;;4.43;2.10;;;;;;;9.06;71.85;97613.13;4989389;28;102729;-63
2023/11/06 07:15:16;;;;;;;6.72;2.00;;;;;;;9.22;71.29;97608.63;4993240;28;102782;-63
2023/11/06 07:17:44;;;;;;;7.35;2.42;;;;;;;9.36;70.19;97617.53;4996927;28;104510;-63
2023/11/06 07:20:15;;;;;;;3.38;2.03;;;;;;;9.63;69.75;97623.91;4995966;28;103232;-64
2023/11/06 07:22:43;;;;;;;5.20;2.17;;;;;;;9.74;69.54;97614.66;4994630;28;102798;-64
2023/11/06 07:25:16;;;;;;;7.20;3.00;;;;;;;9.89;68.65;97619.88;4979927;28;102741;-64
2023/11/06 07:27:49;;;;;;;7.05;2.40;;;;;;;10.08;68.18;97623.69;4974896;28;103098;-64
2023/11/06 07:30:18;;;;;;;4.80;1.83;;;;;;;10.17;67.71;97629.69;4986597;28;103445;-66
2023/11/06 07:32:46;;;;;;;7.72;1.58;;;;;;;10.16;67.62;97626.19;4997592;28;103080;-67
2023/11/06 07:35:17;;;;;;;4.85;1.58;;;;;;;10.23;66.91;97632.38;4999280;28;102708;-64
2023/11/06 07:37:45;;;;;;;3.85;1.40;;;;;;;10.31;66.64;97636.72;4996274;28;104464;-64
2023/11/06 07:40:13;;;;;;;2.35;1.23;;;;;;;10.46;66.32;97639.28;4996897;28;103275;-63
2023/11/06 07:42:41;;;;;;;2.35;1.70;;;;;;;10.41;66.73;97639.84;4996939;28;102588;-63
2023/11/06 07:45:10;;;;;;;3.63;1.40;;;;;;;10.66;66.56;97642.03;4977316;28;104291;-64
2023/11/06 07:47:39;;;;;;;2.38;1.48;;;;;;;10.84;65.74;97643.38;4997382;28;104311;-65
2023/11/06 07:50:08;;;;;;;2.47;1.40;;;;;;;10.67;66.43;97638.38;4981543;28;103293;-64
2023/11/06 07:52:37;;;;;;;2.95;1.40;;;;;;;10.87;65.48;97645.63;4998936;28;103318;-64
2023/11/06 07:55:05;;;;;;;3.25;1.50;;;;;;;11.20;64.70;97637.00;4998814;28;102822;-66
2023/11/06 07:57:34;;;;;;;3.45;1.52;;;;;;;11.35;64.14;97640.31;4992535;28;103948;-67
2023/11/06 08:00:03;;;;;;;7.22;1.75;;;;;;;11.36;64.51;97635.88;4977782;28;103203;-67
2023/11/06 08:02:38;;;;;;;3.15;1.67;;;;;;;11.35;63.74;97635.03;4997830;28;102665;-65
2023/11/06 08:05:10;;;;;;;3.42;1.70;;;;;;;11.66;63.88;97631.03;5001399;28;102860;-66
2023/11/06 08:07:39;;;;;;;4.15;1.80;;;;;;;11.82;63.41;97634.34;4998992;28;103425;-66
2023/11/06 08:10:08;;;;;;;7.05;1.70;;;;;;;11.94;63.36;97643.31;4996749;28;102966;-65
2023/11/06 08:12:37;;;;;;;5.13;1.60;;;;;;;11.82;63.66;97642.28;4995547;28;102741;-64
2023/11/06 08:15:09;;;;;;;2.28;1.52;;;;;;;11.97;62.44;97642.13;5000847;28;102779;-64
2023/11/06 08:17:37;;;;;;;2.87;1.47;;;;;;;12.04;62.54;97643.75;4987286;28;104588;-64
2023/11/06 08:20:09;;;;;;;3.38;1.60;;;;;;;12.28;62.22;97649.47;5002150;28;103173;-66
2023/11/06 08:22:38;;;;;;;3.08;1.58;;;;;;;12.32;61.95;97649.91;4999591;28;102615;-65
2023/11/06 08:25:14;;;;;;;3.03;1.98;;;;;;;12.46;61.68;97661.31;4995426;28;102748;-66
2023/11/06 08:27:44;;;;;;;4.82;1.67;;;;;;;12.30;61.82;97657.22;4996187;28;102932;-65
2023/11/06 08:30:12;;;;;;;3.55;1.55;;;;;;;12.38;60.54;97663.16;4977348;28;103220;-66
2023/11/06 08:32:41;;;;;;;3.75;1.40;;;;;;;12.27;61.04;97664.59;4980436;28;103121;-65
2023/11/06 08:35:12;;;;;;;5.93;1.90;;;;;;;12.65;60.62;97664.97;4982476;28;102879;-65
2023/11/06 08:37:42;;;;;;;4.57;1.60;;;;;;;12.58;59.80;97665.78;4999341;28;102714;-67
2023/11/06 08:40:10;;;;;;;3.75;1.70;;;;;;;12.67;59.45;97674.38;5003954;28;103247;-65
2023/11/06 08:42:46;;;;;;;3.38;1.63;;;;;;;12.82;60.36;97670.66;5003613;28;102648;-65
2023/11/06 08:45:14;;;;;;;4.90;1.50;;;;;;;12.77;60.06;97674.78;5007030;28;104269;-65
2023/11/06 08:47:44;;;;;;;2.50;1.33;;;;;;;12.65;59.76;97679.06;5004142;28;103451;-65
2023/11/06 08:50:13;;;;;;;3.22;1.55;;;;;;;12.87;59.98;97684.16;5005741;28;103245;-67
2023/11/06 08:52:42;;;;;;;1.92;1.30;;;;;;;12.94;60.15;97688.44;4979829;28;104125;-66
2023/11/06 08:55:13;;;;;;;3.90;1.38;;;;;;;13.04;59.43;97690.63;5004381;28;102625;-67
2023/11/06 08:57:45;;;;;;;2.25;1.30;;;;;;;13.39;59.32;97693.00;5004603;28;103363;-66
2023/11/06 09:00:19;;;;;;;2.58;1.50;;;;;;;13.26;58.20;97690.38;4983264;28;103398;-67
2023/11/06 09:02:47;;;;;;;2.17;1.17;;;;;;;13.21;59.23;97691.00;5004840;28;102489;-67
2023/11/06 09:05:23;;;;;;;2.05;1.30;;;;;;;13.71;58.11;97695.72;5001488;28;104352;-68
2023/11/06 09:07:53;;;;;;;3.17;1.50;;;;;;;14.04;57.58;97694.72;5000908;28;103822;-66
2023/11/06 09:10:21;;;;;;;2.55;1.45;;;;;;;13.72;56.72;97697.34;5000753;28;103257;-66
2023/11/06 09:12:49;;;;;;;2.85;1.00;;;;;;;14.02;57.11;97696.78;4980289;28;102876;-66
2023/11/06 09:15:18;;;;;;;1.48;1.05;;;;;;;13.76;57.26;97698.56;4985204;28;102565;-65
2023/11/06 09:17:54;;;;;;;2.67;1.70;;;;;;;13.59;57.58;97702.75;4984082;28;104204;-66
2023/11/06 09:20:22;;;;;;;3.97;1.67;;;;;;;13.50;57.59;97706.69;5003397;28;103133;-65
2023/11/06 09:22:50;;;;;;;6.05;1.65;;;;;;;13.33;58.19;97707.13;4996562;28;102578;-65
2023/11/06 09:25:19;;;;;;;1.98;1.30;;;;;;;13.49;58.54;97707.72;4998014;28;102632;-65
2023/11/06 09:27:47;;;;;;;3.75;1.50;;;;;;;13.41;58.69;97712.25;5002636;28;103358;-67
2023/11/06 09:30:15;;;;;;;1.70;1.10;;;;;;;13.51;57.92;97705.66;4985741;28;103320;-63
2023/11/06 09:32:43;;;;;;;2.67;1.20;;;;;;;13.60;57.99;97713.19;5003756;28;103009;-65
2023/11/06 09:35:11;;;;;;;2.38;1.23;;;;;;;13.62;57.59;97717.47;4986138;28;104480;-65
2023/11/06 09:37:39;;;;;;;1.95;1.20;;;;;;;13.50;58.05;97727.97;5003076;28;103419;-65
2023/11/06 09:40:22;;;;;;;3.38;1.42;;;;;;;13.54;57.50;97716.69;4983325;28;103406;-66
2023/11/06 09:42:51;;;;;;;4.70;1.27;;;;;;;13.43;57.68;97720.81;5001035;28;102590;-66
2023/11/06 09:45:20;;;;;;;4.63;1.45;;;;;;;13.60;57.06;97725.69;5004106;28;103642;-64
2023/11/06 09:47:52;;;;;;;2.60;1.20;;;;;;;13.68;57.78;97712.13;4985416;28;104462;-64
2023/11/06 09:50:23;;;;;;;4.85;1.55;;;;;;;13.64;57.05;97726.03;5002422;28;103249;-66
2023/11/06 09:52:54;;;;;;;3.42;1.60;;;;;;;13.74;57.48;97721.94;5003276;28;102571;-67
2023/11/06 09:55:23;;;;;;;2.40;1.33;;;;;;;13.79;56.66;97723.13;5002515;28;102812;-66
2023/11/06 09:57:52;;;;;;;2.60;1.60;;;;;;;13.86;56.26;97718.56;4982230;28;103319;-65
2023/11/06 10:00:22;;;;;;;3.72;1.42;;;;;;;13.93;56.66;97724.69;5000901;28;103212;-66
2023/11/06 10:02:52;;;;;;;4.32;1.60;;;;;;;13.86;55.99;97719.41;5000015;28;102790;-65
2023/11/06 10:05:22;;;;;;;2.97;1.40;;;;;;;14.12;55.99;97719.44;4980880;28;103062;-65
2023/11/06 10:07:52;;;;;;;2.95;1.90;;;;;;;14.12;54.98;97730.09;5001067;28;104718;-67
2023/11/06 10:10:28;;;;;;;4.10;1.20;;;;;;;14.17;56.29;97730.28;4992620;28;103317;-66
2023/11/06 10:13:09;;;;;;;4.80;1.30;;;;;;;14.28;53.90;97734.91;5002874;28;102663;-67
2023/11/06 10:15:39;;;;;;;1.70;1.23;;;;;;;14.39;54.77;97739.53;4983338;28;103110;-67
2023/11/06 10:18:14;;;;;;;3.78;1.42;;;;;;;14.43;54.83;97735.41;4986566;28;103286;-65
2023/11/06 10:20:44;;;;;;;2.72;1.20;;;;;;;14.23;54.68;97726.75;4998524;28;103365;-65
2023/11/06 10:23:16;;;;;;;4.00;1.23;;;;;;;13.98;54.02;97734.69;5000614;28;102790;-65
2023/11/06 10:25:56;;;;;;;3.20;1.40;;;;;;;14.15;54.69;97721.66;4993312;28;102755;-66
2023/11/06 10:28:26;;;;;;;1.58;1.02;;;;;;;13.97;55.01;97730.41;5004563;28;103346;-69
2023/11/06 10:30:56;;;;;;;7.20;1.40;;;;;;;14.26;55.14;97716.47;5003397;28;103450;-67
2023/11/06 10:33:26;;;;;;;2.22;1.10;;;;;;;14.08;54.01;97711.91;4980721;28;102990;-65
2023/11/06 10:35:55;;;;;;;3.88;1.20;;;;;;;14.20;53.77;97717.34;4983765;28;102661;-68
2023/11/06 10:38:31;;;;;;;1.77;1.40;;;;;;;14.16;54.54;97718.00;4983826;28;103271;-67
2023/11/06 10:41:01;;;;;;;4.05;1.35;;;;;;;14.33;53.73;97719.13;5003653;28;103783;-65
2023/11/06 10:43:31;;;;;;;3.17;1.60;;;;;;;14.82;53.14;97723.88;5003959;28;102701;-66
2023/11/06 10:46:21;;;;;;;3.78;1.20;;;;;;;14.71;52.24;97714.72;4989088;28;102881;-66
2023/11/06 10:48:56;;;;;;;2.15;1.50;;;;;;;14.79;50.79;97710.97;5005198;28;103018;-66
2023/11/06 10:51:28;;;;;;;1.25;0.90;;;;;;;14.73;52.66;97708.13;5001487;28;103245;-66
2023/11/06 10:53:58;;;;;;;3.13;1.10;;;;;;;14.76;51.70;97706.88;4985078;28;103021;-66
2023/11/06 10:56:31;;;;;;;2.25;1.38;;;;;;;14.98;51.57;97703.81;4990175;28;102942;-65
2023/11/06 10:59:02;;;;;;;2.55;1.20;;;;;;;15.09;51.17;97711.06;5001736;28;103299;-65
2023/11/06 11:01:31;;;;;;;4.15;1.30;;;;;;;15.06;50.89;97704.31;4982621;28;103154;-68
2023/11/06 11:04:03;;;;;;;2.28;1.30;;;;;;;14.73;51.63;97708.13;4983567;28;102790;-68
2023/11/06 11:06:33;;;;;;;1.20;1.10;;;;;;;14.88;51.92;97714.97;5001552;28;104250;-66
2023/11/06 11:09:03;;;;;;;4.05;1.40;;;;;;;14.57;52.31;97719.34;4982564;28;103167;-66
2023/11/06 11:11:31;;;;;;;3.53;1.38;;;;;;;14.40;52.27;97711.06;4997983;28;103189;-64
2023/11/06 11:14:01;;;;;;;1.02;0.90;;;;;;;14.40;52.78;97719.88;4998805;28;103883;-65
2023/11/06 11:16:38;;;;;;;2.38;1.35;;;;;;;14.29;52.09;97717.09;5000489;28;103270;-65
2023/11/06 11:19:24;;;;;;;2.08;1.55;;;;;;;14.32;53.33;97716.63;5003615;28;103285;-66
2023/11/06 11:22:10;;;;;;;2.60;1.17;;;;;;;14.50;52.98;97723.88;5002040;28;103199;-67
2023/11/06 11:24:50;;;;;;;1.13;0.98;;;;;;;14.26;53.68;97708.47;5000837;28;102849;-66
2023/11/06 11:27:21;;;;;;;4.63;1.60;;;;;;;14.13;53.94;97715.75;4981230;28;102771;-67
2023/11/06 11:30:11;;;;;;;2.47;1.20;;;;;;;13.74;53.96;97716.59;4998375;28;103356;-67
2023/11/06 11:32:51;;;;;;;1.98;1.30;;;;;;;13.80;54.57;97719.44;5002408;28;103024;-68
2023/11/06 11:35:51;;;;;;;1.70;1.00;;;;;;;13.80;54.38;97719.44;4980749;28;102655;-68
2023/11/06 11:38:24;;;;;;;2.65;1.00;;;;;;;13.79;55.11;97717.81;4985068;28;102740;-68
2023/11/06 11:41:12;;;;;;;;;;;;;;;13.59;54.96;97719.53;4998683;28;103372;-68
2023/11/06 11:43:46;;;;;;;3.83;1.13;;;;;;;13.74;53.38;97716.59;4979788;28;103937;-68
2023/11/06 11:46:55;;;;;;;2.35;1.20;;;;;;;13.55;53.84;97720.97;5006380;28;102625;-66